Time;durP1;ratioP1;P1;durP2;ratioP2;P2;SDS_P1;SDS_P2;PMS_P1;PMS_P2;Temp;Humidity;BMP_temperature;BMP_pressure;BME280_temperature;BME280_humidity;BME280_pressure;Samples;Min_cycle;Max_cycle;Signal;HPM_P1;HPM_P2
2023/03/25 00:03:08;;;;;;;7.90;3.40;;;21.80;71.00;;;;;;222173;1270;22636;-52
2023/03/25 00:08:12;;;;;;;9.30;4.20;;;21.80;70.80;;;;;;222267;1246;25383;-54
2023/03/25 00:13:16;;;;;;;7.40;3.50;;;21.90;70.60;;;;;;222246;1268;23897;-49
2023/03/25 00:18:21;;;;;;;7.70;3.30;;;21.80;70.20;;;;;;222329;1267;25337;-55
2023/03/25 00:23:26;;;;;;;9.90;3.50;;;21.80;70.20;;;;;;222293;1262;22514;-48
2023/03/25 00:28:34;;;;;;;6.90;3.90;;;21.80;69.40;;;;;;222471;1266;24405;-54
2023/03/25 00:33:42;;;;;;;6.70;3.40;;;21.80;69.80;;;;;;222605;1262;24219;-51
2023/03/25 00:38:48;;;;;;;7.30;3.60;;;21.80;69.90;;;;;;222413;1262;24069;-48
2023/03/25 00:43:54;;;;;;;7.40;3.20;;;21.80;70.00;;;;;;222441;1261;24406;-53
2023/03/25 00:48:59;;;;;;;8.30;3.60;;;21.70;69.80;;;;;;222362;1269;22527;-53
2023/03/25 00:54:03;;;;;;;5.70;3.00;;;21.80;70.10;;;;;;222165;1257;22511;-50
2023/03/25 00:59:10;;;;;;;4.30;3.30;;;21.70;69.50;;;;;;222339;1263;22594;-50
2023/03/25 01:04:15;;;;;;;4.30;3.00;;;21.70;69.30;;;;;;222283;1262;24201;-54
2023/03/25 01:09:20;;;;;;;4.10;3.20;;;21.70;69.40;;;;;;222223;1267;22779;-53
2023/03/25 01:14:26;;;;;;;4.60;2.80;;;21.70;69.10;;;;;;230255;1257;22154;-55
2023/03/25 01:19:30;;;;;;;4.50;3.20;;;21.80;68.80;;;;;;230159;1267;22331;-55
2023/03/25 01:24:34;;;;;;;6.70;3.20;;;21.90;68.00;;;;;;224923;1254;24240;-54
2023/03/25 01:29:38;;;;;;;5.70;2.70;;;21.90;67.80;;;;;;230115;1269;22430;-52
2023/03/25 01:34:43;;;;;;;4.40;3.00;;;21.90;68.00;;;;;;227719;1263;22642;-53
2023/03/25 01:39:47;;;;;;;4.00;2.60;;;22.30;67.10;;;;;;226257;1254;25213;-55
2023/03/25 01:44:51;;;;;;;3.10;2.30;;;22.70;66.50;;;;;;222210;1254;26510;-51
2023/03/25 01:49:55;;;;;;;3.60;2.70;;;22.60;66.40;;;;;;222216;1254;25284;-55
2023/03/25 01:54:59;;;;;;;5.70;2.60;;;22.70;66.60;;;;;;222340;1254;24236;-52
2023/03/25 02:00:08;;;;;;;5.70;2.70;;;22.70;66.40;;;;;;222438;1263;23939;-57
2023/03/25 02:05:20;;;;;;;3.50;2.50;;;22.90;66.00;;;;;;222271;1262;22506;-54
2023/03/25 02:10:24;;;;;;;4.80;2.70;;;23.00;65.70;;;;;;222401;1267;24254;-54
2023/03/25 02:15:34;;;;;;;5.40;3.40;;;23.10;65.10;;;;;;222236;1269;23881;-54
2023/03/25 02:20:53;;;;;;;3.90;2.80;;;23.10;64.80;;;;;;222343;1264;22589;-39
2023/03/25 02:26:28;;;;;;;4.20;2.40;;;23.20;64.50;;;;;;229255;1264;22518;-39
2023/03/25 02:31:54;;;;;;;4.00;2.60;;;23.50;63.90;;;;;;230047;1267;22216;-41
2023/03/25 02:37:17;;;;;;;3.20;2.50;;;23.80;62.80;;;;;;222528;1255;22523;-41
2023/03/25 02:42:36;;;;;;;3.20;2.30;;;23.70;63.00;;;;;;222408;1255;22546;-43
2023/03/25 02:47:46;;;;;;;2.60;2.00;;;23.60;63.60;;;;;;222127;1255;24186;-40
2023/03/25 02:52:54;;;;;;;3.90;2.10;;;23.60;63.40;;;;;;222296;1254;24264;-39
2023/03/25 02:58:02;;;;;;;3.50;2.30;;;23.60;63.50;;;;;;222307;1254;25387;-42
2023/03/25 03:03:07;;;;;;;3.30;2.50;;;23.50;63.40;;;;;;222299;1263;23259;-40
2023/03/25 03:08:30;;;;;;;2.50;1.90;;;23.50;63.40;;;;;;222194;1269;25415;-41
2023/03/25 03:13:50;;;;;;;2.60;2.00;;;23.40;63.20;;;;;;222380;1263;22574;-40
2023/03/25 03:19:22;;;;;;;3.80;2.40;;;23.40;63.40;;;;;;222276;1267;22521;-40
2023/03/25 03:24:35;;;;;;;3.10;2.00;;;23.30;63.20;;;;;;222464;1267;22652;-41
2023/03/25 03:29:47;;;;;;;3.80;2.30;;;23.20;63.70;;;;;;222341;1254;22525;-40
2023/03/25 03:35:37;;;;;;;2.60;2.00;;;23.00;65.00;;;;;;222237;1254;22527;-39
2023/03/25 03:40:48;;;;;;;3.30;2.20;;;22.90;64.30;;;;;;221664;1264;22550;-41
2023/03/25 03:45:57;;;;;;;2.60;2.10;;;22.80;64.70;;;;;;222372;1254;24286;-41
2023/03/25 03:51:10;;;;;;;3.40;1.90;;;22.70;64.70;;;;;;222155;1254;24085;-41
2023/03/25 03:56:22;;;;;;;2.90;2.30;;;22.70;64.80;;;;;;222423;1254;22555;-41
2023/03/25 04:01:32;;;;;;;2.70;2.00;;;22.50;65.00;;;;;;222463;1254;25379;-41
2023/03/25 04:06:55;;;;;;;2.50;2.30;;;22.50;64.90;;;;;;222344;1254;24103;-40
2023/03/25 04:12:04;;;;;;;2.40;1.90;;;22.50;65.10;;;;;;222279;1262;22594;-41
2023/03/25 04:17:09;;;;;;;1.90;1.80;;;22.60;64.90;;;;;;222535;1264;23019;-44
2023/03/25 04:22:17;;;;;;;2.80;2.00;;;22.40;65.10;;;;;;222410;1262;22645;-41
2023/03/25 04:27:28;;;;;;;2.30;2.00;;;22.40;65.40;;;;;;222304;1260;24187;-40
2023/03/25 04:32:33;;;;;;;2.10;1.60;;;22.40;65.20;;;;;;222691;1264;22538;-42
2023/03/25 04:37:37;;;;;;;1.80;1.50;;;22.30;65.00;;;;;;230196;1266;23313;-52
2023/03/25 04:42:41;;;;;;;2.10;1.90;;;22.40;64.70;;;;;;228892;1263;22517;-53
2023/03/25 04:47:47;;;;;;;1.60;1.50;;;22.50;64.40;;;;;;222099;1265;22530;-53
2023/03/25 04:52:52;;;;;;;1.60;1.50;;;22.40;64.60;;;;;;222075;1253;24003;-55
2023/03/25 04:57:57;;;;;;;2.10;1.90;;;22.30;65.00;;;;;;222053;1267;22521;-53
2023/03/25 05:03:00;;;;;;;1.90;1.70;;;22.20;65.50;;;;;;222274;1262;22537;-54
2023/03/25 05:08:05;;;;;;;2.30;2.10;;;22.10;64.80;;;;;;222067;1259;23897;-54
2023/03/25 05:13:11;;;;;;;3.40;1.70;;;22.10;65.40;;;;;;222074;1262;23971;-51
2023/03/25 05:18:16;;;;;;;2.30;1.60;;;22.00;65.40;;;;;;222261;1265;24219;-55
2023/03/25 05:23:20;;;;;;;2.20;1.90;;;22.00;65.20;;;;;;222347;1262;24292;-51
2023/03/25 05:28:25;;;;;;;2.70;1.70;;;22.00;65.50;;;;;;222502;1253;22523;-51
2023/03/25 05:33:29;;;;;;;6.50;2.00;;;21.90;65.80;;;;;;222523;1262;22592;-53
2023/03/25 05:38:33;;;;;;;2.00;1.80;;;21.90;65.90;;;;;;222163;1254;22578;-58
2023/03/25 05:43:37;;;;;;;2.00;1.50;;;21.90;65.50;;;;;;222459;1264;22512;-54
2023/03/25 05:48:41;;;;;;;2.90;1.90;;;21.90;65.50;;;;;;222436;1254;22513;-55
2023/03/25 05:53:50;;;;;;;1.90;1.50;;;21.80;65.50;;;;;;222326;1254;22518;-51
2023/03/25 05:58:55;;;;;;;2.90;1.80;;;21.80;65.50;;;;;;222246;1253;24260;-49
2023/03/25 06:04:00;;;;;;;4.30;2.40;;;21.80;65.50;;;;;;222302;1267;25420;-55
2023/03/25 06:09:06;;;;;;;1.60;1.50;;;21.80;65.50;;;;;;222118;1262;22528;-52
2023/03/25 06:14:10;;;;;;;3.10;1.70;;;21.80;65.80;;;;;;222318;1264;22514;-51
2023/03/25 06:19:17;;;;;;;1.70;1.50;;;21.80;65.50;;;;;;222287;1265;22534;-52
2023/03/25 06:24:21;;;;;;;1.70;1.60;;;21.80;65.50;;;;;;222070;1269;155054;-52
2023/03/25 06:29:25;;;;;;;1.90;1.50;;;21.80;65.50;;;;;;222429;1260;22714;-55
2023/03/25 06:34:31;;;;;;;1.80;1.60;;;21.80;65.50;;;;;;222286;1262;25333;-48
2023/03/25 06:39:40;;;;;;;1.50;1.40;;;21.90;65.30;;;;;;222286;1262;25030;-45
2023/03/25 06:44:51;;;;;;;1.40;1.30;;;22.10;64.60;;;;;;222511;1255;23156;-45
2023/03/25 06:50:16;;;;;;;2.10;1.60;;;22.40;63.70;;;;;;222289;1255;22532;-44
2023/03/25 06:55:20;;;;;;;1.70;1.60;;;22.60;63.50;;;;;;222225;1262;22646;-46
2023/03/25 07:00:25;;;;;;;2.20;1.70;;;22.70;63.70;;;;;;222295;1262;24069;-46
2023/03/25 07:05:29;;;;;;;5.10;1.70;;;22.80;63.10;;;;;;222530;1268;22503;-46
2023/03/25 07:10:34;;;;;;;2.80;1.30;;;22.80;63.30;;;;;;222417;1255;23968;-50
2023/03/25 07:15:38;;;;;;;3.20;1.30;;;22.90;62.90;;;;;;222269;1262;22572;-46
2023/03/25 07:20:42;;;;;;;1.60;1.50;;;23.00;62.80;;;;;;222254;1268;22655;-47
2023/03/25 07:25:49;;;;;;;4.80;1.70;;;22.90;62.70;;;;;;222280;1255;22544;-44
2023/03/25 07:30:54;;;;;;;3.40;1.50;;;23.00;62.60;;;;;;222413;1254;22595;-48
2023/03/25 07:35:58;;;;;;;1.40;1.30;;;23.00;63.00;;;;;;222185;1258;24176;-47
2023/03/25 07:41:07;;;;;;;2.50;2.00;;;23.10;62.30;;;;;;222327;1254;22510;-46
2023/03/25 07:46:11;;;;;;;3.80;1.90;;;23.20;62.80;;;;;;222291;1265;24170;-47
2023/03/25 07:51:16;;;;;;;3.70;1.30;;;23.30;62.10;;;;;;222269;1263;22588;-48
2023/03/25 07:56:20;;;;;;;2.90;1.60;;;23.40;61.80;;;;;;222147;1264;23905;-46
2023/03/25 08:01:25;;;;;;;2.30;1.50;;;23.40;61.80;;;;;;222138;1256;22944;-44
2023/03/25 08:06:30;;;;;;;1.70;1.60;;;23.50;62.00;;;;;;222111;1254;22532;-46
2023/03/25 08:11:34;;;;;;;2.20;1.70;;;23.60;61.90;;;;;;222328;1253;24186;-46
2023/03/25 08:16:38;;;;;;;1.60;1.50;;;23.60;61.30;;;;;;222072;1255;23003;-45
2023/03/25 08:21:44;;;;;;;1.50;1.40;;;23.70;61.20;;;;;;221984;1256;22518;-46
2023/03/25 08:26:48;;;;;;;3.10;1.40;;;23.70;61.50;;;;;;221963;1262;24180;-47
2023/03/25 08:31:53;;;;;;;2.90;1.70;;;23.70;61.00;;;;;;222162;1263;25337;-46
2023/03/25 08:36:57;;;;;;;1.90;1.50;;;23.70;61.20;;;;;;222233;1253;22560;-45
2023/03/25 08:42:01;;;;;;;1.70;1.50;;;23.70;61.30;;;;;;222323;1265;25400;-45
2023/03/25 08:47:06;;;;;;;4.90;1.70;;;23.60;62.80;;;;;;222462;1260;22962;-45
2023/03/25 08:52:10;;;;;;;1.90;1.80;;;23.50;62.80;;;;;;222279;1262;25326;-47
2023/03/25 08:57:14;;;;;;;3.00;1.40;;;23.50;62.20;;;;;;222566;1267;22559;-44
2023/03/25 09:02:18;;;;;;;1.90;1.80;;;23.40;62.10;;;;;;222241;1244;22558;-47
2023/03/25 09:07:22;;;;;;;4.40;1.70;;;23.40;62.70;;;;;;222552;1255;22823;-46
2023/03/25 09:12:26;;;;;;;3.50;1.70;;;23.30;63.90;;;;;;222307;1260;24365;-44
2023/03/25 09:17:30;;;;;;;2.30;1.70;;;23.40;63.60;;;;;;222299;1256;24173;-57
2023/03/25 09:22:35;;;;;;;1.80;1.30;;;23.30;63.30;;;;;;222512;1255;22647;-54
2023/03/25 09:27:39;;;;;;;13.60;1.70;;;23.20;63.20;;;;;;222434;1262;27394;-54
2023/03/25 09:32:44;;;;;;;11.90;2.00;;;23.10;64.00;;;;;;222491;1260;23935;-52
2023/03/25 09:37:48;;;;;;;5.20;1.70;;;23.10;64.20;;;;;;222463;1254;24264;-53
2023/03/25 09:43:21;;;;;;;6.80;1.70;;;23.10;64.60;;;;;;222468;1260;23913;-54
2023/03/25 09:48:39;;;;;;;5.70;1.90;;;23.10;64.20;;;;;;222652;1262;24427;-53
2023/03/25 09:53:50;;;;;;;2.30;1.30;;;23.10;63.90;;;;;;222446;1265;22513;-54
2023/03/25 09:59:00;;;;;;;2.80;1.20;;;23.10;63.90;;;;;;222455;1254;22509;-52
2023/03/25 10:04:14;;;;;;;7.90;1.60;;;23.10;64.30;;;;;;222324;1262;23619;-56
2023/03/25 10:09:46;;;;;;;5.40;1.80;;;23.00;63.30;;;;;;222276;1246;25473;-52
2023/03/25 10:15:02;;;;;;;4.80;1.40;;;23.00;63.60;;;;;;222159;1255;25608;-53
2023/03/25 10:20:12;;;;;;;8.00;2.20;;;23.00;65.10;;;;;;222346;1262;26509;-54
2023/03/25 10:25:21;;;;;;;11.00;2.10;;;23.10;64.30;;;;;;222311;1262;22530;-51
2023/03/25 10:30:25;;;;;;;6.80;2.00;;;23.00;65.10;;;;;;221984;1255;22728;-56
2023/03/25 10:35:36;;;;;;;6.70;1.90;;;23.00;64.00;;;;;;222464;1260;22523;-54
2023/03/25 10:40:52;;;;;;;10.00;1.90;;;22.90;64.60;;;;;;222346;1262;24252;-50
2023/03/25 10:46:13;;;;;;;11.60;2.00;;;23.00;65.20;;;;;;222205;1253;22650;-52
2023/03/25 10:51:23;;;;;;;6.60;1.90;;;23.00;64.00;;;;;;222301;1262;24217;-49
2023/03/25 10:56:44;;;;;;;6.90;1.80;;;23.00;64.30;;;;;;222250;1262;22511;-51
2023/03/25 11:01:49;;;;;;;6.30;2.00;;;23.10;63.90;;;;;;222381;1255;22609;-51
2023/03/25 11:06:58;;;;;;;9.70;3.80;;;23.30;63.90;;;;;;222456;1262;24044;-53
2023/03/25 11:12:05;;;;;;;13.10;3.00;;;23.80;62.40;;;;;;222580;1261;24229;-49
2023/03/25 11:17:19;;;;;;;6.70;2.20;;;23.90;62.20;;;;;;222503;1262;22686;-50
2023/03/25 11:22:28;;;;;;;8.50;2.90;;;24.00;61.90;;;;;;222354;1262;24228;-51
2023/03/25 11:27:44;;;;;;;10.30;2.60;;;23.60;62.10;;;;;;222297;1263;24197;-51
2023/03/25 11:33:03;;;;;;;13.70;3.40;;;23.40;63.10;;;;;;222357;1254;22527;-50
2023/03/25 11:38:22;;;;;;;11.20;3.00;;;23.40;63.30;;;;;;222345;1262;22580;-47
2023/03/25 11:43:33;;;;;;;11.40;3.40;;;23.50;63.30;;;;;;222211;1255;22574;-46
2023/03/25 11:48:40;;;;;;;12.60;3.10;;;23.50;63.70;;;;;;222233;1254;22505;-49
2023/03/25 11:53:49;;;;;;;14.40;4.20;;;23.50;64.70;;;;;;222238;1262;23268;-49
2023/03/25 11:58:58;;;;;;;8.50;3.50;;;23.60;66.60;;;;;;222331;1256;25329;-44
2023/03/25 12:04:19;;;;;;;15.40;4.20;;;23.80;66.10;;;;;;222000;1268;22513;-48
2023/03/25 12:09:26;;;;;;;14.00;4.00;;;23.50;64.60;;;;;;222353;1256;22616;-46
2023/03/25 12:14:42;;;;;;;9.20;3.80;;;23.40;65.00;;;;;;222218;1256;22607;-48
2023/03/25 12:20:26;;;;;;;13.00;3.80;;;23.40;64.30;;;;;;222267;1262;25348;-46
2023/03/25 12:25:30;;;;;;;10.80;3.30;;;23.30;64.30;;;;;;222238;1262;24283;-47
2023/03/25 12:31:06;;;;;;;11.90;4.00;;;23.30;63.20;;;;;;222230;1262;22508;-48
2023/03/25 12:36:13;;;;;;;12.80;3.30;;;23.30;63.20;;;;;;222240;1262;22508;-52
2023/03/25 12:41:32;;;;;;;11.40;3.80;;;23.30;62.50;;;;;;222356;1262;23742;-50
2023/03/25 12:47:14;;;;;;;12.30;2.90;;;23.30;62.70;;;;;;222333;1256;22556;-46
2023/03/25 12:52:35;;;;;;;11.20;3.30;;;23.20;61.90;;;;;;221944;1259;22521;-45
2023/03/25 12:57:48;;;;;;;13.30;3.00;;;23.30;61.00;;;;;;222056;1263;23024;-47
2023/03/25 13:03:18;;;;;;;8.80;2.80;;;23.30;61.00;;;;;;222372;1254;22511;-47
2023/03/25 13:08:35;;;;;;;10.60;3.20;;;23.20;61.20;;;;;;222394;1263;22632;-49
2023/03/25 13:13:43;;;;;;;5.30;2.40;;;23.10;61.00;;;;;;222111;1262;24212;-47
2023/03/25 13:18:53;;;;;;;6.30;3.10;;;23.10;61.00;;;;;;222323;1256;22507;-45
2023/03/25 13:24:06;;;;;;;4.00;2.20;;;23.10;60.90;;;;;;222357;1264;23487;-48
2023/03/25 13:29:51;;;;;;;6.70;2.70;;;23.10;60.70;;;;;;222356;1262;22816;-47
2023/03/25 13:35:01;;;;;;;6.30;2.40;;;23.00;60.80;;;;;;220910;1270;22587;-47
2023/03/25 13:40:26;;;;;;;5.00;2.40;;;22.90;61.30;;;;;;220853;1276;24348;-47
2023/03/25 13:45:58;;;;;;;4.80;1.90;;;22.90;60.90;;;;;;220845;1271;22564;-47
2023/03/25 13:51:06;;;;;;;5.30;1.90;;;22.90;60.70;;;;;;220665;1265;24256;-49
2023/03/25 13:56:37;;;;;;;4.40;2.40;;;22.90;60.70;;;;;;220818;1271;22527;-48
2023/03/25 14:02:10;;;;;;;4.00;2.20;;;22.90;60.90;;;;;;221153;1265;22525;-48
2023/03/25 14:07:34;;;;;;;2.90;1.70;;;22.90;60.90;;;;;;220713;1269;24284;-48
2023/03/25 14:13:00;;;;;;;4.20;1.80;;;22.80;60.30;;;;;;222220;1258;22641;-48
2023/03/25 14:18:12;;;;;;;2.20;1.80;;;22.80;60.20;;;;;;222159;1263;22649;-47
2023/03/25 14:23:19;;;;;;;3.20;1.70;;;22.90;60.10;;;;;;222304;1258;25609;-50
2023/03/25 14:28:39;;;;;;;3.90;2.20;;;22.80;59.80;;;;;;222184;1263;24311;-47
2023/03/25 14:33:58;;;;;;;3.30;2.20;;;22.80;59.80;;;;;;222274;1268;22519;-50
2023/03/25 14:39:09;;;;;;;3.70;1.90;;;22.80;59.70;;;;;;222401;1262;23023;-47
2023/03/25 14:44:18;;;;;;;2.00;1.50;;;22.80;59.80;;;;;;222135;1265;22763;-50
2023/03/25 14:49:29;;;;;;;3.20;2.10;;;22.70;59.50;;;;;;222313;1253;22521;-50
2023/03/25 14:54:34;;;;;;;3.30;2.10;;;22.70;60.00;;;;;;222342;1269;22605;-50
2023/03/25 14:59:52;;;;;;;4.00;1.80;;;22.70;59.70;;;;;;222322;1261;22515;-46
2023/03/25 15:05:15;;;;;;;2.10;1.60;;;22.70;59.30;;;;;;222369;1254;22663;-47
2023/03/25 15:10:28;;;;;;;2.20;1.60;;;22.80;59.30;;;;;;222145;1263;22558;-47
2023/03/25 15:15:44;;;;;;;4.50;1.90;;;22.80;59.50;;;;;;222394;1269;22570;-50
2023/03/25 15:20:49;;;;;;;2.10;1.30;;;22.70;59.40;;;;;;222395;1255;25231;-47
2023/03/25 15:25:55;;;;;;;3.50;1.80;;;22.70;59.10;;;;;;222362;1253;24216;-46
2023/03/25 15:31:21;;;;;;;2.00;1.50;;;22.70;58.80;;;;;;222394;1262;22517;-48
2023/03/25 15:36:46;;;;;;;2.30;1.70;;;22.60;59.00;;;;;;222185;1265;24081;-47
2023/03/25 15:42:19;;;;;;;1.40;1.30;;;22.60;58.80;;;;;;222323;1254;25348;-48
2023/03/25 15:47:23;;;;;;;2.60;1.80;;;22.50;58.60;;;;;;222354;1263;24340;-52
2023/03/25 15:52:56;;;;;;;1.40;1.20;;;22.50;58.70;;;;;;222353;1262;22511;-46
2023/03/25 15:58:04;;;;;;;2.50;1.30;;;22.50;58.60;;;;;;222397;1250;22518;-45
2023/03/25 16:03:19;;;;;;;5.30;1.50;;;22.50;59.00;;;;;;222504;1262;24366;-45
2023/03/25 16:08:46;;;;;;;3.70;1.40;;;22.50;58.40;;;;;;222624;1269;25607;-51
2023/03/25 16:14:11;;;;;;;5.40;1.40;;;22.60;58.40;;;;;;222264;1253;22629;-46
2023/03/25 16:19:20;;;;;;;1.90;1.40;;;22.60;58.90;;;;;;222355;1265;25120;-46
2023/03/25 16:24:28;;;;;;;3.20;1.70;;;22.60;59.10;;;;;;222543;1265;22536;-48
2023/03/25 16:29:32;;;;;;;1.40;1.30;;;22.60;58.90;;;;;;222497;1255;25312;-47
2023/03/25 16:34:40;;;;;;;3.30;1.20;;;22.60;59.10;;;;;;222457;1260;25320;-45
2023/03/25 16:39:51;;;;;;;3.20;1.10;;;22.60;59.20;;;;;;222319;1262;25230;-48
2023/03/25 16:44:55;;;;;;;1.70;1.20;;;22.40;60.00;;;;;;222367;1254;24260;-52
2023/03/25 16:50:02;;;;;;;7.30;1.10;;;22.40;59.90;;;;;;222356;1265;22624;-47
2023/03/25 16:55:29;;;;;;;4.30;1.20;;;22.40;59.90;;;;;;222272;1253;22507;-46
2023/03/25 17:00:42;;;;;;;4.80;1.60;;;22.40;59.20;;;;;;222316;1262;22516;-49
2023/03/25 17:06:21;;;;;;;4.50;1.50;;;22.30;59.90;;;;;;222396;1265;26500;-46
2023/03/25 17:11:31;;;;;;;6.80;1.50;;;22.40;59.80;;;;;;221064;1272;25337;-47
2023/03/25 17:16:38;;;;;;;2.10;1.30;;;22.40;59.90;;;;;;220902;1254;25568;-50
2023/03/25 17:22:03;;;;;;;4.40;1.70;;;22.30;59.80;;;;;;221061;1269;22662;-49
2023/03/25 17:27:33;;;;;;;6.10;1.40;;;22.20;60.10;;;;;;221024;1269;23499;-46
2023/03/25 17:32:44;;;;;;;6.60;1.50;;;22.10;60.50;;;;;;220967;1269;22525;-46
2023/03/25 17:37:49;;;;;;;2.00;1.30;;;22.10;60.20;;;;;;221139;1262;23969;-45
2023/03/25 17:42:55;;;;;;;5.80;1.90;;;22.10;60.20;;;;;;221078;1269;24853;-46
2023/03/25 17:48:00;;;;;;;3.10;1.60;;;22.10;60.10;;;;;;222057;1263;22511;-49
2023/03/25 17:53:05;;;;;;;2.20;1.30;;;22.10;60.40;;;;;;222399;1266;23500;-50
2023/03/25 17:58:14;;;;;;;3.30;1.60;;;22.10;59.90;;;;;;222327;1262;24174;-46
2023/03/25 18:03:24;;;;;;;5.40;1.60;;;22.10;59.70;;;;;;222421;1262;22515;-46
2023/03/25 18:08:29;;;;;;;3.00;2.00;;;22.10;59.70;;;;;;222418;1265;25310;-46
2023/03/25 18:13:37;;;;;;;2.10;1.60;;;22.10;59.80;;;;;;222446;1255;22530;-46
2023/03/25 18:18:44;;;;;;;3.10;1.80;;;22.00;59.60;;;;;;222115;1262;25272;-47
2023/03/25 18:23:50;;;;;;;4.60;2.20;;;22.00;59.60;;;;;;222124;1263;199349;-47
2023/03/25 18:28:55;;;;;;;3.60;1.80;;;22.00;60.60;;;;;;222373;1262;25467;-48
2023/03/25 18:34:02;;;;;;;4.40;2.30;;;22.00;60.00;;;;;;222424;1255;24178;-46
2023/03/25 18:39:20;;;;;;;4.80;2.10;;;22.00;60.00;;;;;;222311;1263;25482;-48
2023/03/25 18:44:29;;;;;;;4.20;2.20;;;22.00;60.80;;;;;;222267;1260;25333;-48
2023/03/25 18:49:38;;;;;;;;;;;22.10;60.60;;;;;;221359;1267;25237;-46
2023/03/25 18:54:45;;;;;;;3.60;2.40;;;22.20;60.60;;;;;;221370;1267;22531;-47
2023/03/25 18:59:51;;;;;;;6.50;2.30;;;22.10;60.60;;;;;;221224;1268;22521;-48
2023/03/25 19:04:58;;;;;;;5.20;2.30;;;21.90;60.50;;;;;;221278;1259;22524;-48
2023/03/25 19:10:05;;;;;;;5.70;2.70;;;22.00;60.60;;;;;;221263;1262;22504;-52
2023/03/25 19:15:14;;;;;;;7.00;3.30;;;22.10;60.90;;;;;;222182;1246;24050;-54
2023/03/25 19:20:22;;;;;;;9.00;3.60;;;22.30;60.60;;;;;;222397;1256;24062;-53
2023/03/25 19:25:28;;;;;;;5.80;2.90;;;22.30;60.20;;;;;;222197;1264;22515;-47
2023/03/25 19:30:34;;;;;;;6.80;2.70;;;22.30;60.20;;;;;;222448;1262;24318;-50
2023/03/25 19:35:53;;;;;;;11.30;2.60;;;22.30;60.20;;;;;;222317;1263;22468;-50
2023/03/25 19:41:08;;;;;;;5.90;2.50;;;22.30;60.20;;;;;;222083;1269;22523;-49
2023/03/25 19:46:15;;;;;;;4.50;2.50;;;22.40;59.50;;;;;;222291;1262;23795;-50
2023/03/25 19:51:23;;;;;;;5.40;2.80;;;22.40;60.00;;;;;;222080;1265;22590;-50
2023/03/25 19:56:32;;;;;;;3.90;2.10;;;22.20;60.10;;;;;;222328;1262;25218;-47
2023/03/25 20:01:39;;;;;;;10.40;2.60;;;22.20;60.40;;;;;;222313;1259;25284;-47
2023/03/25 20:06:44;;;;;;;8.40;2.60;;;22.30;60.70;;;;;;222363;1261;22518;-52
2023/03/25 20:11:50;;;;;;;5.50;2.20;;;22.20;60.50;;;;;;222245;1246;24185;-49
2023/03/25 20:16:56;;;;;;;6.70;2.50;;;22.20;59.60;;;;;;221877;1263;22522;-52
2023/03/25 20:22:03;;;;;;;4.20;2.50;;;22.20;59.90;;;;;;221713;1262;22517;-51
2023/03/25 20:27:27;;;;;;;5.10;2.70;;;22.20;59.20;;;;;;222417;1257;25233;-52
2023/03/25 20:32:33;;;;;;;3.90;2.30;;;22.20;59.40;;;;;;222449;1262;25379;-50
2023/03/25 20:37:47;;;;;;;4.50;2.20;;;22.10;59.60;;;;;;222294;1266;22659;-50
2023/03/25 20:42:55;;;;;;;7.50;3.00;;;22.10;59.50;;;;;;222399;1256;25236;-52
2023/03/25 20:48:00;;;;;;;9.10;3.30;;;22.10;60.00;;;;;;222198;1262;23010;-52
2023/03/25 20:53:07;;;;;;;4.50;2.20;;;22.00;60.30;;;;;;222393;1255;24263;-51
2023/03/25 20:58:13;;;;;;;6.20;2.40;;;22.10;60.50;;;;;;222472;1255;22637;-55
2023/03/25 21:03:18;;;;;;;7.30;2.50;;;22.00;60.60;;;;;;222000;1260;22512;-53
2023/03/25 21:08:30;;;;;;;6.80;2.60;;;22.00;62.10;;;;;;222369;1247;24190;-48
2023/03/25 21:13:35;;;;;;;10.30;2.50;;;22.00;62.90;;;;;;222401;1262;22515;-53
2023/03/25 21:18:41;;;;;;;4.50;2.50;;;22.00;63.30;;;;;;222257;1255;22562;-46
2023/03/25 21:23:48;;;;;;;9.60;2.70;;;22.00;62.60;;;;;;222829;1260;24218;-46
2023/03/25 21:28:53;;;;;;;4.50;2.40;;;22.00;62.30;;;;;;222639;1263;22763;-46
2023/03/25 21:33:59;;;;;;;5.10;2.50;;;21.90;62.30;;;;;;222585;1263;24380;-45
2023/03/25 21:39:06;;;;;;;9.50;2.10;;;21.90;62.00;;;;;;222538;1264;24264;-44
2023/03/25 21:44:14;;;;;;;7.40;2.50;;;21.90;62.10;;;;;;222677;1263;24298;-46
2023/03/25 21:49:21;;;;;;;7.40;2.20;;;21.90;62.10;;;;;;222675;1254;24258;-52
2023/03/25 21:54:27;;;;;;;4.30;2.00;;;21.90;61.90;;;;;;222627;1256;24335;-49
2023/03/25 21:59:32;;;;;;;4.70;2.20;;;21.90;61.80;;;;;;222713;1254;23881;-52
2023/03/25 22:04:38;;;;;;;4.10;2.10;;;21.80;61.90;;;;;;222779;1263;22514;-49
2023/03/25 22:09:42;;;;;;;3.00;1.90;;;21.80;61.60;;;;;;222637;1254;24266;-50
2023/03/25 22:14:46;;;;;;;4.60;1.90;;;21.80;61.80;;;;;;222444;1263;22522;-52
2023/03/25 22:19:50;;;;;;;3.80;2.20;;;21.80;61.80;;;;;;222575;1264;25339;-49
2023/03/25 22:24:54;;;;;;;2.40;2.10;;;21.70;61.80;;;;;;222470;1262;24216;-51
2023/03/25 22:30:00;;;;;;;4.70;2.30;;;21.80;61.60;;;;;;222399;1262;23927;-54
2023/03/25 22:35:05;;;;;;;3.00;2.40;;;21.80;61.70;;;;;;222198;1264;22529;-46
2023/03/25 22:40:10;;;;;;;2.70;1.80;;;21.80;61.40;;;;;;222392;1264;23924;-46
2023/03/25 22:45:15;;;;;;;3.60;2.00;;;22.00;61.10;;;;;;222467;1254;24206;-46
2023/03/25 22:50:19;;;;;;;3.00;1.90;;;22.20;60.80;;;;;;222469;1254;24192;-48
2023/03/25 22:55:25;;;;;;;3.20;1.80;;;22.30;60.30;;;;;;222377;1264;22517;-48
2023/03/25 23:00:28;;;;;;;2.50;1.60;;;22.50;59.90;;;;;;222291;1264;24210;-49
2023/03/25 23:05:33;;;;;;;3.20;1.90;;;22.60;59.90;;;;;;222300;1254;24193;-49
2023/03/25 23:10:43;;;;;;;3.30;1.90;;;22.70;59.60;;;;;;222130;1254;25468;-53
2023/03/25 23:15:47;;;;;;;3.10;1.60;;;22.70;59.40;;;;;;222397;1254;25406;-53
2023/03/25 23:20:51;;;;;;;2.80;1.70;;;22.90;59.20;;;;;;222258;1264;23736;-47
2023/03/25 23:26:01;;;;;;;2.10;1.70;;;22.90;59.00;;;;;;222313;1254;24474;-54
2023/03/25 23:31:19;;;;;;;2.70;1.70;;;23.00;58.80;;;;;;222483;1254;25502;-44
2023/03/25 23:36:34;;;;;;;2.20;2.00;;;23.10;58.50;;;;;;222418;1254;25272;-45
2023/03/25 23:41:43;;;;;;;2.20;1.80;;;23.30;58.30;;;;;;222577;1248;24193;-42
2023/03/25 23:46:56;;;;;;;2.60;1.20;;;23.40;57.80;;;;;;224918;1262;22513;-44
2023/03/25 23:52:09;;;;;;;3.70;2.10;;;23.50;57.90;;;;;;222746;1254;24193;-43
2023/03/25 23:57:14;;;;;;;2.20;1.90;;;23.40;58.50;;;;;;223084;1254;22778;-47
